createdAt,value
2022-11-21T00:00:34.978Z,100.00
2022-11-21T00:01:24.386Z,100.00
2022-11-21T00:02:11.361Z,100.00
2022-11-21T00:03:02.358Z,100.00
2022-11-21T00:03:49.737Z,100.00
2022-11-21T00:04:36.553Z,100.00
2022-11-21T00:05:23.466Z,100.00
2022-11-21T00:06:10.329Z,100.00
2022-11-21T00:06:57.230Z,100.00
2022-11-21T00:07:46.179Z,100.00
2022-11-21T00:08:33.087Z,100.00
2022-11-21T00:09:19.979Z,100.00
2022-11-21T00:10:07.224Z,100.00
2022-11-21T00:10:54.098Z,100.00
2022-11-21T00:11:40.990Z,100.00
2022-11-21T00:12:27.965Z,100.00
2022-11-21T00:13:19.708Z,100.00
2022-11-21T00:14:06.607Z,100.00
2022-11-21T00:14:53.573Z,100.00
2022-11-21T00:15:40.501Z,100.00
2022-11-21T00:16:27.440Z,100.00
2022-11-21T00:17:14.328Z,100.00
2022-11-21T00:18:03.268Z,100.00
2022-11-21T00:18:50.177Z,100.00
2022-11-21T00:19:37.028Z,100.00
2022-11-21T00:20:24.245Z,100.00
2022-11-21T00:21:13.867Z,100.00
2022-11-21T00:22:00.768Z,100.00
2022-11-21T00:22:48.399Z,100.00
2022-11-21T00:23:35.436Z,100.00
2022-11-21T00:24:22.347Z,100.00
2022-11-21T00:25:09.800Z,100.00
2022-11-21T00:25:56.679Z,100.00
2022-11-21T00:26:43.548Z,100.00
2022-11-21T00:27:30.483Z,100.00
2022-11-21T00:28:17.388Z,100.00
2022-11-21T00:29:04.312Z,100.00
2022-11-21T00:29:51.207Z,100.00
2022-11-21T00:30:38.137Z,100.00
2022-11-21T00:31:25.537Z,100.00
2022-11-21T00:32:12.420Z,100.00
2022-11-21T00:32:59.601Z,100.00
2022-11-21T00:33:46.509Z,100.00
2022-11-21T00:34:33.486Z,100.00
2022-11-21T00:35:20.512Z,100.00
2022-11-21T00:36:09.169Z,100.00
2022-11-21T00:36:56.099Z,100.00
2022-11-21T00:37:42.987Z,100.00
2022-11-21T00:38:29.918Z,100.00
2022-11-21T00:39:16.737Z,100.00
2022-11-21T00:40:04.378Z,100.00
2022-11-21T00:40:51.308Z,100.00
2022-11-21T00:41:38.218Z,100.00
2022-11-21T00:42:25.139Z,100.00
2022-11-21T00:43:12.258Z,100.00
2022-11-21T00:43:59.317Z,100.00
2022-11-21T00:44:46.166Z,100.00
2022-11-21T00:45:33.045Z,100.00
2022-11-21T00:46:19.947Z,100.00
2022-11-21T00:47:06.829Z,100.00
2022-11-21T00:47:53.737Z,100.00
2022-11-21T00:48:40.689Z,100.00
2022-11-21T00:49:27.796Z,100.00
2022-11-21T00:50:14.747Z,100.00
2022-11-21T00:51:01.844Z,100.00
2022-11-21T00:51:48.757Z,100.00
2022-11-21T00:52:35.621Z,100.00
2022-11-21T00:53:22.519Z,100.00
2022-11-21T00:54:09.637Z,100.00
2022-11-21T00:54:56.978Z,100.00
2022-11-21T00:55:43.879Z,100.00
2022-11-21T00:56:30.768Z,100.00
2022-11-21T00:57:17.618Z,100.00
2022-11-21T00:58:04.478Z,100.00
2022-11-21T00:58:51.296Z,100.00
2022-11-21T00:59:38.340Z,100.00
2022-11-21T01:00:25.289Z,100.00
2022-11-21T01:01:15.023Z,100.00
2022-11-21T01:02:02.298Z,100.00
2022-11-21T01:02:49.177Z,100.00
2022-11-21T01:03:36.619Z,100.00
2022-11-21T01:04:23.639Z,100.00
2022-11-21T01:05:10.537Z,100.00
2022-11-21T01:06:02.038Z,100.00
2022-11-21T01:06:48.909Z,100.00
2022-11-21T01:07:35.958Z,100.00
2022-11-21T01:08:22.892Z,100.00
2022-11-21T01:09:09.908Z,100.00
2022-11-21T01:09:56.729Z,100.00
2022-11-21T01:10:43.526Z,100.00
2022-11-21T01:11:30.686Z,100.00
2022-11-21T01:12:17.636Z,100.00
2022-11-21T01:13:04.620Z,100.00
2022-11-21T01:13:53.577Z,100.00
2022-11-21T01:14:40.427Z,100.00
2022-11-21T01:15:27.337Z,100.00
2022-11-21T01:16:17.077Z,100.00
2022-11-21T01:17:03.953Z,100.00
2022-11-21T01:17:50.788Z,100.00
2022-11-21T01:18:37.828Z,100.00
2022-11-21T01:19:24.737Z,100.00
2022-11-21T01:20:11.777Z,100.00
2022-11-21T01:21:07.358Z,100.00
2022-11-21T01:21:54.218Z,100.00
2022-11-21T01:22:41.087Z,100.00
2022-11-21T01:23:28.518Z,100.00
2022-11-21T01:24:15.396Z,100.00
2022-11-21T01:25:02.217Z,100.00
2022-11-21T01:25:49.117Z,100.00
2022-11-21T01:26:38.300Z,100.00
2022-11-21T01:27:25.147Z,100.00
2022-11-21T01:28:12.086Z,100.00
2022-11-21T01:28:59.559Z,100.00
2022-11-21T01:29:46.458Z,100.00
2022-11-21T01:30:33.317Z,100.00
2022-11-21T01:31:22.667Z,100.00
2022-11-21T01:32:09.528Z,100.00
2022-11-21T01:32:56.418Z,100.00
2022-11-21T01:33:43.427Z,100.00
2022-11-21T01:34:30.337Z,100.00
2022-11-21T01:35:18.090Z,100.00
2022-11-21T01:36:15.617Z,100.00
2022-11-21T01:37:02.678Z,100.00
2022-11-21T01:37:49.956Z,100.00
2022-11-21T01:38:36.889Z,100.00
2022-11-21T01:39:23.808Z,100.00
2022-11-21T01:40:11.538Z,100.00
2022-11-21T01:40:58.378Z,100.00
2022-11-21T01:41:45.938Z,100.00
2022-11-21T01:42:50.407Z,100.00
2022-11-21T01:43:37.937Z,100.00
2022-11-21T01:44:44.927Z,100.00
2022-11-21T01:46:10.040Z,100.00
2022-11-21T01:46:56.906Z,100.00
2022-11-21T01:47:43.788Z,100.00
2022-11-21T01:48:45.798Z,100.00
2022-11-21T01:49:33.131Z,100.00
2022-11-21T01:50:20.028Z,100.00
2022-11-21T01:51:24.628Z,100.00
2022-11-21T01:52:31.687Z,100.00
2022-11-21T01:53:18.907Z,100.00
2022-11-21T01:54:10.427Z,100.00
2022-11-21T01:55:04.517Z,100.00
2022-11-21T01:55:51.969Z,100.00
2022-11-21T01:56:59.375Z,100.00
2022-11-21T01:57:48.677Z,100.00
2022-11-21T01:58:36.058Z,100.00
2022-11-21T01:59:55.159Z,100.00
2022-11-21T02:00:43.104Z,100.00
2022-11-21T02:01:30.515Z,100.00
2022-11-21T02:02:18.818Z,100.00
2022-11-21T02:03:10.117Z,100.00
2022-11-21T02:03:57.509Z,100.00
2022-11-21T02:04:44.972Z,100.00
2022-11-21T02:05:34.008Z,100.00
2022-11-21T02:06:21.206Z,100.00
2022-11-21T02:07:08.419Z,100.00
2022-11-21T02:07:57.801Z,100.00
2022-11-21T02:08:45.367Z,100.00
2022-11-21T02:09:33.767Z,100.00
2022-11-21T02:10:20.717Z,100.00
2022-11-21T02:11:48.128Z,100.00
2022-11-21T02:12:58.427Z,100.00
2022-11-21T02:13:45.338Z,100.00
2022-11-21T02:14:33.257Z,100.00
2022-11-21T02:15:22.982Z,100.00
2022-11-21T02:16:10.168Z,100.00
2022-11-21T02:17:00.828Z,100.00
2022-11-21T02:17:47.536Z,100.00
2022-11-21T02:18:34.462Z,100.00
2022-11-21T02:19:44.459Z,100.00
2022-11-21T02:20:31.367Z,100.00
2022-11-21T02:21:36.128Z,100.00
2022-11-21T02:23:10.586Z,100.00
2022-11-21T02:24:02.828Z,100.00
2022-11-21T02:25:09.199Z,100.00
2022-11-21T02:25:56.207Z,100.00
2022-11-21T02:26:43.158Z,100.00
2022-11-21T02:27:30.037Z,100.00
2022-11-21T02:28:19.838Z,100.00
2022-11-21T02:29:06.773Z,100.00
2022-11-21T02:29:53.657Z,100.00
2022-11-21T02:30:42.067Z,100.00
2022-11-21T02:31:28.957Z,100.00
2022-11-21T02:32:32.279Z,100.00
2022-11-21T02:33:19.227Z,100.00
2022-11-21T02:34:06.786Z,100.00
2022-11-21T02:34:53.697Z,100.00
2022-11-21T02:35:40.881Z,100.00
2022-11-21T02:36:48.137Z,100.00
2022-11-21T02:37:37.485Z,100.00
2022-11-21T02:38:37.158Z,100.00
2022-11-21T02:39:27.747Z,100.00
2022-11-21T02:40:25.647Z,100.00
2022-11-21T02:41:17.848Z,100.00
2022-11-21T02:42:31.276Z,100.00
2022-11-21T02:43:36.558Z,100.00
2022-11-21T02:44:37.647Z,100.00
2022-11-21T02:45:31.091Z,100.00
2022-11-21T02:46:17.978Z,100.00
2022-11-21T02:47:04.897Z,100.00
2022-11-21T02:47:58.163Z,100.00
2022-11-21T02:48:49.317Z,100.00
2022-11-21T02:50:03.838Z,100.00
2022-11-21T02:50:50.757Z,100.00
2022-11-21T02:51:37.618Z,100.00
2022-11-21T02:52:24.441Z,100.00
2022-11-21T02:53:14.610Z,100.00
2022-11-21T02:54:01.487Z,100.00
2022-11-21T02:54:48.387Z,100.00
2022-11-21T02:55:35.506Z,100.00
2022-11-21T02:56:22.376Z,100.00
2022-11-21T02:57:09.420Z,100.00
2022-11-21T02:57:59.063Z,100.00
2022-11-21T02:58:48.530Z,100.00
2022-11-21T02:59:35.416Z,100.00
2022-11-21T03:00:22.964Z,100.00
2022-11-21T03:01:09.952Z,100.00
2022-11-21T03:01:59.967Z,100.00
2022-11-21T03:02:47.219Z,100.00
2022-11-21T03:03:34.100Z,100.00
2022-11-21T03:04:20.977Z,100.00
2022-11-21T03:05:10.208Z,100.00
2022-11-21T03:05:57.152Z,100.00
2022-11-21T03:06:44.047Z,100.00
2022-11-21T03:07:30.973Z,100.00
2022-11-21T03:08:17.886Z,100.00
2022-11-21T03:09:04.738Z,100.00
2022-11-21T03:09:51.658Z,100.00
2022-11-21T03:10:38.807Z,100.00
2022-11-21T03:11:25.677Z,100.00
2022-11-21T03:12:12.527Z,100.00
2022-11-21T03:13:02.576Z,100.00
2022-11-21T03:13:49.427Z,100.00
2022-11-21T03:14:37.156Z,100.00
2022-11-21T03:15:23.959Z,100.00
2022-11-21T03:16:11.151Z,100.00
2022-11-21T03:16:58.057Z,100.00
2022-11-21T03:17:48.841Z,100.00
2022-11-21T03:18:35.688Z,100.00
2022-11-21T03:19:22.547Z,100.00
2022-11-21T03:20:10.316Z,100.00
2022-11-21T03:20:58.229Z,100.00
2022-11-21T03:21:45.097Z,100.00
2022-11-21T03:22:32.067Z,100.00
2022-11-21T03:23:18.997Z,100.00
2022-11-21T03:24:06.437Z,100.00
2022-11-21T03:24:53.338Z,100.00
2022-11-21T03:25:40.217Z,100.00
2022-11-21T03:26:27.099Z,100.00
2022-11-21T03:27:14.037Z,100.00
2022-11-21T03:28:00.860Z,100.00
2022-11-21T03:28:47.737Z,100.00
2022-11-21T03:29:34.606Z,100.00
2022-11-21T03:30:22.911Z,100.00
2022-11-21T03:31:09.876Z,100.00
2022-11-21T03:31:56.839Z,100.00
2022-11-21T03:32:43.781Z,100.00
2022-11-21T03:33:30.699Z,100.00
2022-11-21T03:34:17.589Z,100.00
2022-11-21T03:35:05.097Z,100.00
2022-11-21T03:35:51.947Z,100.00
2022-11-21T03:36:38.880Z,100.00
2022-11-21T03:37:25.747Z,100.00
2022-11-21T03:38:12.618Z,100.00
2022-11-21T03:38:59.446Z,100.00
2022-11-21T03:39:46.298Z,100.00
2022-11-21T03:40:33.147Z,100.00
2022-11-21T03:41:32.409Z,100.00
2022-11-21T03:42:19.288Z,100.00
2022-11-21T03:43:06.620Z,100.00
2022-11-21T03:43:53.757Z,100.00
2022-11-21T03:44:40.646Z,100.00
2022-11-21T03:45:27.538Z,100.00
2022-11-21T03:46:14.391Z,100.00
2022-11-21T03:47:01.281Z,100.00
2022-11-21T03:47:48.127Z,100.00
2022-11-21T03:48:35.026Z,100.00
2022-11-21T03:49:21.988Z,100.00
2022-11-21T03:50:09.047Z,100.00
2022-11-21T03:50:55.918Z,100.00
2022-11-21T03:51:43.978Z,100.00
2022-11-21T03:52:30.786Z,100.00
2022-11-21T03:53:17.672Z,100.00
2022-11-21T03:54:05.086Z,100.00
2022-11-21T03:54:51.949Z,100.00
2022-11-21T03:55:38.836Z,100.00
2022-11-21T03:56:26.516Z,100.00
2022-11-21T03:57:13.386Z,100.00
2022-11-21T03:58:00.196Z,100.00
2022-11-21T03:58:47.067Z,100.00
2022-11-21T03:59:33.996Z,100.00
2022-11-21T04:00:20.868Z,100.00
2022-11-21T04:01:07.894Z,100.00
2022-11-21T04:01:54.848Z,100.00
2022-11-21T04:02:41.707Z,100.00
2022-11-21T04:03:28.607Z,100.00
2022-11-21T04:04:15.556Z,100.00
2022-11-21T04:05:02.429Z,100.00
2022-11-21T04:05:49.517Z,100.00
2022-11-21T04:06:36.392Z,100.00
2022-11-21T04:07:23.352Z,100.00
2022-11-21T04:08:10.237Z,100.00
2022-11-21T04:08:57.107Z,100.00
2022-11-21T04:09:43.966Z,100.00
2022-11-21T04:10:30.887Z,100.00
2022-11-21T04:11:17.907Z,100.00
2022-11-21T04:12:07.723Z,100.00
2022-11-21T04:12:54.970Z,100.00
2022-11-21T04:13:42.107Z,100.00
2022-11-21T04:14:29.176Z,100.00
2022-11-21T04:15:16.557Z,100.00
2022-11-21T04:16:05.196Z,100.00
2022-11-21T04:16:52.017Z,100.00
2022-11-21T04:17:39.487Z,100.00
2022-11-21T04:18:26.706Z,100.00
2022-11-21T04:19:13.537Z,100.00
2022-11-21T04:20:00.397Z,100.00
2022-11-21T04:20:47.256Z,100.00
2022-11-21T04:21:34.166Z,100.00
2022-11-21T04:22:21.077Z,100.00
2022-11-21T04:23:07.930Z,100.00
2022-11-21T04:23:54.757Z,100.00
2022-11-21T04:24:41.656Z,100.00
2022-11-21T04:25:28.597Z,100.00
2022-11-21T04:26:15.500Z,100.00
2022-11-21T04:27:02.386Z,100.00
2022-11-21T04:27:49.247Z,100.00
2022-11-21T04:28:36.186Z,100.00
2022-11-21T04:29:23.108Z,100.00
2022-11-21T04:30:10.557Z,100.00
2022-11-21T04:31:07.007Z,100.00
2022-11-21T04:31:57.068Z,100.00
2022-11-21T04:32:44.408Z,100.00
2022-11-21T04:33:31.246Z,100.00
2022-11-21T04:34:18.107Z,100.00
2022-11-21T04:35:05.412Z,100.00
2022-11-21T04:35:52.281Z,100.00
2022-11-21T04:36:39.131Z,100.00
2022-11-21T04:37:26.018Z,100.00
2022-11-21T04:38:14.017Z,100.00
2022-11-21T04:39:00.876Z,100.00
2022-11-21T04:39:47.841Z,100.00
2022-11-21T04:40:35.837Z,100.00
2022-11-21T04:41:22.685Z,100.00
2022-11-21T04:42:09.558Z,100.00
2022-11-21T04:42:56.477Z,100.00
2022-11-21T04:43:43.336Z,100.00
2022-11-21T04:44:30.380Z,100.00
2022-11-21T04:45:18.068Z,100.00
2022-11-21T04:46:04.957Z,100.00
2022-11-21T04:46:53.378Z,100.00
2022-11-21T04:47:41.437Z,100.00
2022-11-21T04:48:28.287Z,100.00
2022-11-21T04:49:15.330Z,100.00
2022-11-21T04:50:02.251Z,100.00
2022-11-21T04:50:49.149Z,100.00
2022-11-21T04:51:35.976Z,100.00
2022-11-21T04:52:23.017Z,100.00
2022-11-21T04:53:09.978Z,100.00
2022-11-21T04:53:56.898Z,100.00
2022-11-21T04:54:43.770Z,100.00
2022-11-21T04:55:31.789Z,100.00
2022-11-21T04:56:18.668Z,100.00
2022-11-21T04:57:05.578Z,100.00
2022-11-21T04:57:52.469Z,100.00
2022-11-21T04:58:39.279Z,100.00
2022-11-21T04:59:26.197Z,100.00
2022-11-21T05:00:18.441Z,100.00
2022-11-21T05:01:09.331Z,100.00
2022-11-21T05:01:56.258Z,100.00
2022-11-21T05:02:43.608Z,100.00
2022-11-21T05:03:30.457Z,100.00
2022-11-21T05:04:17.297Z,100.00
2022-11-21T05:05:04.366Z,100.00
2022-11-21T05:05:51.677Z,100.00
2022-11-21T05:06:38.518Z,100.00
2022-11-21T05:07:26.220Z,100.00
2022-11-21T05:08:13.159Z,100.00
2022-11-21T05:09:00.027Z,100.00
2022-11-21T05:09:46.987Z,100.00
2022-11-21T05:10:53.900Z,100.00
2022-11-21T05:11:59.378Z,100.00
2022-11-21T05:13:04.936Z,100.00
2022-11-21T05:13:54.318Z,100.00
2022-11-21T05:14:41.150Z,100.00
2022-11-21T05:15:28.009Z,100.00
2022-11-21T05:16:14.982Z,100.00
2022-11-21T05:17:01.837Z,100.00
2022-11-21T05:17:48.700Z,100.00
2022-11-21T05:18:35.566Z,100.00
2022-11-21T05:19:22.420Z,100.00
2022-11-21T05:20:09.949Z,100.00
2022-11-21T05:20:56.957Z,100.00
2022-11-21T05:21:44.482Z,100.00
2022-11-21T05:22:31.377Z,100.00
2022-11-21T05:23:18.298Z,100.00
2022-11-21T05:24:05.357Z,100.00
2022-11-21T05:24:52.228Z,100.00
2022-11-21T05:25:39.098Z,100.00
2022-11-21T05:26:25.909Z,100.00
2022-11-21T05:27:12.818Z,100.00
2022-11-21T05:27:59.628Z,100.00
2022-11-21T05:28:47.917Z,100.00
2022-11-21T05:29:34.776Z,100.00
2022-11-21T05:30:21.698Z,100.00
2022-11-21T05:31:08.598Z,100.00
2022-11-21T05:31:55.629Z,100.00
2022-11-21T05:32:43.990Z,100.00
2022-11-21T05:33:30.847Z,100.00
2022-11-21T05:34:17.657Z,100.00
2022-11-21T05:35:04.604Z,100.00
2022-11-21T05:35:51.439Z,100.00
2022-11-21T05:36:38.397Z,100.00
2022-11-21T05:37:25.348Z,100.00
2022-11-21T05:38:12.339Z,100.00
2022-11-21T05:38:59.187Z,100.00
2022-11-21T05:39:46.018Z,100.00
2022-11-21T05:40:32.877Z,100.00
2022-11-21T05:41:19.718Z,100.00
2022-11-21T05:42:06.748Z,100.00
2022-11-21T05:43:12.397Z,100.00
2022-11-21T05:43:59.307Z,100.00
2022-11-21T05:44:46.248Z,100.00
2022-11-21T05:45:33.118Z,100.00
2022-11-21T05:46:21.800Z,100.00
2022-11-21T05:47:08.738Z,100.00
2022-11-21T05:47:55.637Z,100.00
2022-11-21T05:48:42.567Z,100.00
2022-11-21T05:49:29.439Z,100.00
2022-11-21T05:50:16.578Z,100.00
2022-11-21T05:51:04.876Z,100.00
2022-11-21T05:51:51.737Z,100.00
2022-11-21T05:52:38.580Z,100.00
2022-11-21T05:53:25.422Z,100.00
2022-11-21T05:54:14.326Z,100.00
2022-11-21T05:55:01.240Z,100.00
2022-11-21T05:55:48.137Z,100.00
2022-11-21T05:56:35.458Z,100.00
2022-11-21T05:57:22.351Z,100.00
2022-11-21T05:58:11.002Z,100.00
2022-11-21T05:58:58.877Z,100.00
2022-11-21T05:59:45.769Z,100.00
2022-11-21T06:00:33.437Z,100.00
2022-11-21T06:01:40.337Z,100.00
2022-11-21T06:02:45.808Z,100.00
2022-11-21T06:03:36.817Z,100.00
2022-11-21T06:04:23.690Z,100.00
2022-11-21T06:05:10.578Z,100.00
2022-11-21T06:06:12.748Z,100.00
2022-11-21T06:07:00.220Z,100.00
2022-11-21T06:07:47.218Z,100.00
2022-11-21T06:08:44.807Z,100.00
2022-11-21T06:09:31.618Z,100.00
2022-11-21T06:10:18.648Z,100.00
2022-11-21T06:11:07.037Z,100.00
2022-11-21T06:11:53.890Z,100.00
2022-11-21T06:12:40.767Z,100.00
2022-11-21T06:13:28.220Z,100.00
2022-11-21T06:14:15.079Z,100.00
2022-11-21T06:15:01.939Z,100.00
2022-11-21T06:15:50.745Z,100.00
2022-11-21T06:16:37.618Z,100.00
2022-11-21T06:17:24.548Z,100.00
2022-11-21T06:18:11.357Z,100.00
2022-11-21T06:18:58.927Z,100.00
2022-11-21T06:19:45.992Z,100.00
2022-11-21T06:20:32.887Z,100.00
2022-11-21T06:21:24.958Z,100.00
2022-11-21T06:22:11.878Z,100.00
2022-11-21T06:22:58.728Z,100.00
2022-11-21T06:23:46.027Z,100.00
2022-11-21T06:24:32.962Z,100.00
2022-11-21T06:25:19.937Z,100.00
2022-11-21T06:26:12.437Z,100.00
2022-11-21T06:26:59.586Z,100.00
2022-11-21T06:27:46.417Z,100.00
2022-11-21T06:28:36.058Z,100.00
2022-11-21T06:29:23.003Z,100.00
2022-11-21T06:30:10.416Z,100.00
2022-11-21T06:30:58.098Z,100.00
2022-11-21T06:31:44.958Z,100.00
2022-11-21T06:32:37.135Z,100.00
2022-11-21T06:33:24.016Z,100.00
2022-11-21T06:34:10.877Z,100.00
2022-11-21T06:34:57.738Z,100.00
2022-11-21T06:35:44.991Z,100.00
2022-11-21T06:36:31.869Z,100.00
2022-11-21T06:37:18.806Z,100.00
2022-11-21T06:38:05.677Z,100.00
2022-11-21T06:38:54.528Z,100.00
2022-11-21T06:39:41.348Z,100.00
2022-11-21T06:40:28.217Z,100.00
2022-11-21T06:41:20.806Z,100.00
2022-11-21T06:42:07.666Z,100.00
2022-11-21T06:42:54.565Z,100.00
2022-11-21T06:43:42.165Z,100.00
2022-11-21T06:44:29.311Z,100.00
2022-11-21T06:45:16.600Z,100.00
2022-11-21T06:46:04.456Z,100.00
2022-11-21T06:46:51.846Z,100.00
2022-11-21T06:47:38.817Z,100.00
2022-11-21T06:48:25.898Z,100.00
2022-11-21T06:49:13.016Z,100.00
2022-11-21T06:50:00.788Z,100.00
2022-11-21T06:50:47.638Z,100.00
2022-11-21T06:51:34.577Z,100.00
2022-11-21T06:52:21.498Z,100.00
2022-11-21T06:53:08.367Z,100.00
2022-11-21T06:53:57.280Z,100.00
2022-11-21T06:54:44.119Z,100.00
2022-11-21T06:55:31.517Z,100.00
2022-11-21T06:56:18.617Z,100.00
2022-11-21T06:57:05.481Z,100.00
2022-11-21T06:57:52.390Z,100.00
2022-11-21T06:58:39.278Z,100.00
2022-11-21T06:59:26.128Z,100.00
2022-11-21T07:00:13.778Z,100.00
2022-11-21T07:01:05.806Z,100.00
2022-11-21T07:01:53.248Z,100.00
2022-11-21T07:02:40.098Z,100.00
2022-11-21T07:03:27.003Z,100.00
2022-11-21T07:04:13.851Z,100.00
2022-11-21T07:05:00.757Z,100.00
2022-11-21T07:05:47.589Z,100.00
2022-11-21T07:06:35.147Z,100.00
2022-11-21T07:07:22.833Z,100.00
2022-11-21T07:08:13.274Z,100.00
2022-11-21T07:10:07.690Z,100.00
2022-11-21T07:11:23.176Z,100.00
2022-11-21T07:12:22.131Z,100.00
2022-11-21T07:13:23.606Z,100.00
2022-11-21T07:14:10.736Z,100.00
2022-11-21T07:14:57.619Z,100.00
2022-11-21T07:15:45.338Z,100.00
2022-11-21T07:16:34.067Z,100.00
2022-11-21T07:17:21.011Z,100.00
2022-11-21T07:18:07.887Z,100.00
2022-11-21T07:18:54.811Z,100.00
2022-11-21T07:19:41.661Z,100.00
2022-11-21T07:20:28.667Z,100.00
2022-11-21T07:21:15.649Z,100.00
2022-11-21T07:22:02.518Z,100.00
2022-11-21T07:22:49.381Z,100.00
2022-11-21T07:23:36.249Z,100.00
2022-11-21T07:24:23.138Z,100.00
2022-11-21T07:25:10.227Z,100.00
2022-11-21T07:26:01.594Z,100.00
2022-11-21T07:26:48.426Z,100.00
2022-11-21T07:27:35.315Z,100.00
2022-11-21T07:28:22.253Z,100.00
2022-11-21T07:29:09.117Z,100.00
2022-11-21T07:29:57.687Z,100.00
2022-11-21T07:30:44.500Z,100.00
2022-11-21T07:31:31.369Z,100.00
2022-11-21T07:32:18.256Z,100.00
2022-11-21T07:33:07.225Z,100.00
2022-11-21T07:33:54.078Z,100.00
2022-11-21T07:34:40.959Z,100.00
2022-11-21T07:35:28.556Z,100.00
2022-11-21T07:36:15.718Z,100.00
2022-11-21T07:37:05.120Z,100.00
2022-11-21T07:37:52.648Z,100.00
2022-11-21T07:38:41.881Z,100.00
2022-11-21T07:39:29.270Z,100.00
2022-11-21T07:40:16.689Z,100.00
2022-11-21T07:41:04.259Z,100.00
2022-11-21T07:41:51.309Z,100.00
2022-11-21T07:42:38.279Z,100.00
2022-11-21T07:43:25.347Z,100.00
2022-11-21T07:44:12.391Z,100.00
2022-11-21T07:44:59.470Z,100.00
2022-11-21T07:45:46.698Z,100.00
2022-11-21T07:46:33.738Z,100.00
2022-11-21T07:47:20.718Z,100.00
2022-11-21T07:48:08.861Z,100.00
2022-11-21T07:49:02.906Z,100.00
2022-11-21T07:49:52.269Z,100.00
2022-11-21T07:50:41.008Z,100.00
2022-11-21T07:51:29.239Z,100.00
2022-11-21T07:52:16.648Z,100.00
2022-11-21T07:53:05.701Z,100.00
2022-11-21T07:53:53.787Z,100.00
2022-11-21T07:54:41.102Z,100.00
2022-11-21T07:55:29.968Z,100.00
2022-11-21T07:56:16.990Z,100.00
2022-11-21T07:57:05.988Z,100.00
2022-11-21T07:58:08.593Z,100.00
2022-11-21T07:58:55.738Z,100.00
2022-11-21T07:59:43.888Z,100.00
2022-11-21T08:00:32.509Z,100.00
2022-11-21T08:01:19.669Z,100.00
2022-11-21T08:02:06.835Z,100.00
2022-11-21T08:02:53.799Z,100.00
2022-11-21T08:03:40.741Z,100.00
2022-11-21T08:04:29.009Z,100.00
2022-11-21T08:05:16.059Z,100.00
2022-11-21T08:06:04.578Z,100.00
2022-11-21T08:07:23.307Z,100.00
2022-11-21T08:08:12.067Z,100.00
2022-11-21T08:09:07.768Z,100.00
2022-11-21T08:09:54.758Z,100.00
2022-11-21T08:10:43.660Z,100.00
2022-11-21T08:11:32.549Z,100.00
2022-11-21T08:12:19.465Z,100.00
2022-11-21T08:13:06.805Z,100.00
2022-11-21T08:13:53.727Z,100.00
2022-11-21T08:14:41.239Z,99.92
2022-11-21T08:15:28.158Z,100.00
2022-11-21T08:16:15.209Z,100.00
2022-11-21T08:17:03.792Z,100.00
2022-11-21T08:17:51.559Z,100.00
2022-11-21T08:18:38.979Z,100.00
2022-11-21T08:19:26.247Z,100.00
2022-11-21T08:20:14.379Z,100.00
2022-11-21T08:21:03.176Z,100.00
2022-11-21T08:21:50.860Z,99.91
2022-11-21T08:22:41.644Z,100.00
2022-11-21T08:23:28.598Z,100.00
2022-11-21T08:24:17.654Z,100.00
2022-11-21T08:25:05.335Z,100.00
2022-11-21T08:25:55.288Z,100.00
2022-11-21T08:26:42.289Z,100.00
2022-11-21T08:27:29.480Z,100.00
2022-11-21T08:28:16.439Z,100.00
2022-11-21T08:29:03.569Z,100.00
2022-11-21T08:29:50.677Z,100.00
2022-11-21T08:30:38.176Z,100.00
2022-11-21T08:31:25.161Z,100.00
2022-11-21T08:32:12.260Z,100.00
2022-11-21T08:32:59.769Z,100.00
2022-11-21T08:33:46.860Z,100.00
2022-11-21T08:34:33.788Z,99.98
2022-11-21T08:35:20.927Z,99.82
2022-11-21T08:36:08.171Z,99.39
2022-11-21T08:36:55.158Z,99.08
2022-11-21T08:37:42.139Z,99.03
2022-11-21T08:38:30.418Z,98.84
2022-11-21T08:39:17.598Z,98.88
2022-11-21T08:40:05.049Z,99.00
2022-11-21T08:41:17.271Z,99.19
2022-11-21T08:42:04.950Z,99.23
2022-11-21T08:43:08.942Z,98.49
2022-11-21T08:43:55.932Z,97.79
2022-11-21T08:44:42.900Z,97.85
2022-11-21T08:45:30.050Z,97.45
2022-11-21T08:46:22.370Z,96.52
2022-11-21T08:47:11.240Z,96.58
2022-11-21T08:47:58.278Z,96.59
2022-11-21T08:48:45.500Z,96.75
2022-11-21T08:49:32.741Z,96.91
2022-11-21T08:50:20.279Z,97.43
2022-11-21T08:51:07.280Z,97.44
2022-11-21T08:51:54.758Z,97.89
2022-11-21T08:52:41.832Z,97.75
2022-11-21T08:53:28.801Z,97.57
2022-11-21T08:54:19.257Z,98.32
2022-11-21T08:55:06.803Z,98.88
2022-11-21T08:55:55.009Z,98.12
2022-11-21T08:56:42.070Z,98.29
2022-11-21T08:57:29.271Z,98.73
2022-11-21T08:58:16.230Z,98.06
2022-11-21T08:59:03.210Z,98.29
2022-11-21T08:59:50.239Z,97.60
2022-11-21T09:00:37.779Z,97.73
2022-11-21T09:01:24.778Z,98.08
2022-11-21T09:02:12.063Z,97.92
2022-11-21T09:02:59.089Z,97.23
2022-11-21T09:03:46.139Z,96.80
2022-11-21T09:04:33.190Z,96.64
2022-11-21T09:05:20.248Z,96.57
2022-11-21T09:06:07.398Z,97.05
2022-11-21T09:06:54.390Z,97.21
2022-11-21T09:07:41.789Z,97.76
2022-11-21T09:08:29.824Z,97.48
2022-11-21T09:09:22.133Z,97.36
2022-11-21T09:10:12.147Z,97.34
2022-11-21T09:10:59.648Z,96.84
2022-11-21T09:11:46.630Z,96.72
2022-11-21T09:12:33.646Z,96.82
2022-11-21T09:13:20.830Z,96.42
2022-11-21T09:14:26.598Z,96.06
2022-11-21T09:15:32.418Z,95.42
2022-11-21T09:16:38.248Z,94.79
2022-11-21T09:17:43.898Z,95.18
2022-11-21T09:18:30.949Z,95.61
2022-11-21T09:19:18.059Z,96.39
2022-11-21T09:20:05.570Z,96.32
2022-11-21T09:20:52.628Z,96.42
2022-11-21T09:21:39.606Z,96.22
2022-11-21T09:22:26.779Z,95.72
2022-11-21T09:23:15.511Z,95.43
2022-11-21T09:24:02.573Z,95.52
2022-11-21T09:24:49.607Z,94.71
2022-11-21T09:25:36.872Z,94.29
2022-11-21T09:26:23.828Z,94.45
2022-11-21T09:27:10.788Z,95.11
2022-11-21T09:28:04.046Z,95.28
2022-11-21T09:28:50.958Z,96.08
2022-11-21T09:29:38.273Z,96.64
2022-11-21T09:30:25.220Z,95.97
2022-11-21T09:31:12.602Z,95.45
2022-11-21T09:32:00.033Z,94.91
2022-11-21T09:32:47.010Z,94.52
2022-11-21T09:33:34.199Z,94.60
2022-11-21T09:34:21.206Z,93.44
2022-11-21T09:35:09.095Z,93.40
2022-11-21T09:35:58.720Z,92.70
2022-11-21T09:36:47.005Z,92.38
2022-11-21T09:37:40.728Z,92.83
2022-11-21T09:38:30.198Z,92.75
2022-11-21T09:39:18.208Z,92.33
2022-11-21T09:40:08.508Z,91.86
2022-11-21T09:41:30.330Z,90.87
2022-11-21T09:42:35.880Z,89.70
2022-11-21T09:43:44.344Z,91.19
2022-11-21T09:44:47.290Z,91.72
2022-11-21T09:45:35.412Z,91.14
2022-11-21T09:46:27.308Z,91.09
2022-11-21T09:47:27.118Z,91.52
2022-11-21T09:48:31.248Z,91.69
2022-11-21T09:49:18.151Z,92.02
2022-11-21T09:50:24.469Z,91.96
2022-11-21T09:51:14.549Z,92.53
2022-11-21T09:52:02.171Z,93.62
2022-11-21T09:52:54.092Z,93.37
2022-11-21T09:53:53.527Z,93.21
2022-11-21T09:54:51.610Z,91.92
2022-11-21T09:55:52.615Z,91.07
2022-11-21T09:56:41.920Z,91.39
2022-11-21T09:57:34.618Z,90.82
2022-11-21T09:58:31.908Z,91.02
2022-11-21T09:59:29.964Z,90.17
2022-11-21T10:00:22.388Z,90.18
2022-11-21T10:01:12.886Z,89.46
2022-11-21T10:02:00.187Z,89.42
2022-11-21T10:02:47.378Z,91.59
2022-11-21T10:03:42.996Z,92.05
2022-11-21T10:04:31.924Z,91.46
2022-11-21T10:05:26.410Z,90.63
2022-11-21T10:06:23.291Z,89.77
2022-11-21T10:07:15.967Z,89.32
2022-11-21T10:08:13.761Z,88.56
2022-11-21T10:09:15.209Z,88.91
2022-11-21T10:10:09.138Z,89.47
2022-11-21T10:11:14.136Z,88.76
2022-11-21T10:12:33.998Z,88.98
2022-11-21T10:13:43.654Z,87.33
2022-11-21T10:15:05.372Z,87.67
2022-11-21T10:16:18.683Z,87.60
2022-11-21T10:17:24.270Z,88.03
2022-11-21T10:18:58.759Z,87.72
2022-11-21T10:19:49.088Z,87.51